Latest Weather Observations for Banana Bank

IDQ60801

Issued at 8:02 am EST Wednesday 2 September 2015 (issued every 30 minutes, with the page automatically refreshed every 10 minutes)

About weather observations | Map of weather stations | Latest weather observations for QLD | Other Formats
Station Details ID: 040925 Name: BANANA BANK NORTH BEACON Lat: -27.53 Lon: 153.33 Height: 7.0 m
Data from the previous 72 hours. | See also: Recent months for locations in Queensland
Date/Time
EST
Temp
°C
App
Temp
°C
Dew
Point
Rel
Hum
%
Delta-T
°C
Wind Press
QNH
hPa
Press
MSL
hPa
Rain
since 9 am
mm
Dir
 
Spd
km/h
Gust
km/h
Spd
kts
Gust
kts
02/08:00am - - - - - SSW 6 7 3 4 - - -
02/07:30am - - - - - W 9 13 5 7 - - -
02/07:00am - - - - - WSW 11 17 6 9 - - -
02/06:30am - - - - - WSW 7 11 4 6 - - -
02/06:00am - - - - - W 17 20 9 11 - - -
02/05:30am - - - - - W 20 24 11 13 - - -
02/05:00am - - - - - WSW 11 19 6 10 - - -
02/04:30am - - - - - WSW 15 24 8 13 - - -
02/04:00am - - - - - WSW 9 13 5 7 - - -
02/03:30am - - - - - W 17 20 9 11 - - -
02/03:00am - - - - - WSW 13 17 7 9 - - -
02/02:30am - - - - - WSW 17 20 9 11 - - -
02/02:00am - - - - - W 19 22 10 12 - - -
02/01:30am - - - - - W 17 20 9 11 - - -
02/01:00am - - - - - W 19 22 10 12 - - -
02/12:30am - - - - - WSW 15 20 8 11 - - -
02/12:00am - - - - - W 17 20 9 11 - - -
 
Date/Time
EST
Temp
°C
App
Temp
°C
Dew
Point
Rel
Hum
%
Delta-T
°C
Wind Press
QNH
hPa
Press
MSL
hPa
Rain
since 9 am
mm
Dir
 
Spd
km/h
Gust
km/h
Spd
kts
Gust
kts
01/11:30pm - - - - - WSW 9 13 5 7 - - -
01/11:00pm - - - - - W 9 13 5 7 - - -
01/10:30pm - - - - - NW 7 9 4 5 - - -
01/10:00pm - - - - - CALM 0 0 0 0 - - -
01/09:30pm - - - - - WNW 7 11 4 6 - - -
01/09:00pm - - - - - NW 20 24 11 13 - - -
01/08:30pm - - - - - NW 20 26 11 14 - - -
01/08:00pm - - - - - NW 26 28 14 15 - - -
01/07:30pm - - - - - NNW 24 28 13 15 - - -
01/07:00pm - - - - - NNW 24 28 13 15 - - -
01/06:30pm - - - - - NNW 24 30 13 16 - - -
01/06:00pm - - - - - NNW 24 30 13 16 - - -
01/05:30pm - - - - - N 24 30 13 16 - - -
01/05:00pm - - - - - N 19 20 10 11 - - -
01/04:30pm - - - - - N 17 20 9 11 - - -
01/04:00pm - - - - - NNE 11 13 6 7 - - -
01/03:30pm - - - - - NNE 15 17 8 9 - - -
01/03:00pm - - - - - N 15 19 8 10 - - -
01/02:30pm - - - - - N 17 22 9 12 - - -
01/02:00pm - - - - - N 13 17 7 9 - - -
01/01:30pm - - - - - N 13 15 7 8 - - -
01/01:00pm - - - - - N 13 19 7 10 - - -
01/12:30pm - - - - - WNW 7 11 4 6 - - -
01/12:00pm - - - - - WSW 4 7 2 4 - - -
01/11:30am - - - - - WSW 9 15 5 8 - - -
01/11:00am - - - - - W 11 17 6 9 - - -
01/10:30am - - - - - W 11 17 6 9 - - -
01/10:00am - - - - - W 19 20 10 11 - - -
01/09:30am - - - - - W 15 22 8 12 - - -
01/09:00am - - - - - WNW 4 11 2 6 - - -
01/08:30am - - - - - CALM 0 0 0 0 - - -
01/08:00am - - - - - SW 4 6 2 3 - - -
01/07:30am - - - - - SW 6 9 3 5 - - -
01/07:00am - - - - - WSW 9 15 5 8 - - -
01/06:30am - - - - - WSW 11 17 6 9 - - -
01/06:00am - - - - - WSW 9 15 5 8 - - -
01/05:30am - - - - - SW 9 13 5 7 - - -
01/05:00am - - - - - WSW 13 17 7 9 - - -
01/04:30am - - - - - WSW 11 17 6 9 - - -
01/04:00am - - - - - WSW 11 17 6 9 - - -
01/03:30am - - - - - WSW 13 19 7 10 - - -
01/03:00am - - - - - WSW 13 19 7 10 - - -
01/02:30am - - - - - WSW 19 24 10 13 - - -
01/02:00am - - - - - WSW 17 26 9 14 - - -
01/01:30am - - - - - WSW 15 19 8 10 - - -
01/01:00am - - - - - WSW 13 19 7 10 - - -
01/12:30am - - - - - WSW 15 20 8 11 - - -
01/12:00am - - - - - WSW 13 20 7 11 - - -
 
Date/Time
EST
Temp
°C
App
Temp
°C
Dew
Point
Rel
Hum
%
Delta-T
°C
Wind Press
QNH
hPa
Press
MSL
hPa
Rain
since 9 am
mm
Dir
 
Spd
km/h
Gust
km/h
Spd
kts
Gust
kts
31/11:30pm - - - - - WSW 9 17 5 9 - - -
31/11:00pm - - - - - WSW 13 19 7 10 - - -
31/10:30pm - - - - - SW 17 20 9 11 - - -
31/10:00pm - - - - - SW 11 13 6 7 - - -
31/09:30pm - - - - - W 9 13 5 7 - - -
31/09:00pm - - - - - WNW 15 20 8 11 - - -
31/08:30pm - - - - - CALM 0 0 0 0 - - -
31/08:00pm - - - - - NE 4 4 2 2 - - -
31/07:30pm - - - - - NE 6 6 3 3 - - -
31/07:00pm - - - - - NE 6 7 3 4 - - -
31/06:30pm - - - - - E 7 9 4 5 - - -
31/06:00pm - - - - - NE 13 17 7 9 - - -
31/05:30pm - - - - - NNE 13 15 7 8 - - -
31/05:00pm - - - - - NE 17 17 9 9 - - -
31/04:30pm - - - - - NNE 15 17 8 9 - - -
31/04:00pm - - - - - N 13 15 7 8 - - -
31/03:30pm - - - - - N 17 20 9 11 - - -
31/03:00pm - - - - - NNE 6 9 3 5 - - -
31/02:30pm - - - - - NNE 7 11 4 6 - - -
31/02:00pm - - - - - N 13 15 7 8 - - -
31/01:30pm - - - - - NNW 7 11 4 6 - - -
31/01:00pm - - - - - NNE 6 7 3 4 - - -
31/12:30pm - - - - - ENE 7 9 4 5 - - -
31/12:00pm - - - - - E 7 11 4 6 - - -
31/11:30am - - - - - ESE 9 9 5 5 - - -
31/11:00am - - - - - SE 7 9 4 5 - - -
31/10:30am - - - - - SSE 7 9 4 5 - - -
31/10:00am - - - - - S 6 7 3 4 - - -
31/09:30am - - - - - SW 6 11 3 6 - - -
31/09:00am - - - - - SW 13 17 7 9 - - -
31/08:30am - - - - - WSW 13 17 7 9 - - -
31/08:00am - - - - - SW 17 20 9 11 - - -
31/07:30am - - - - - WSW 13 19 7 10 - - -
31/07:00am - - - - - SSW 15 22 8 12 - - -
31/06:30am - - - - - WSW 15 20 8 11 - - -
31/06:00am - - - - - WSW 17 26 9 14 - - -
31/05:30am - - - - - WSW 17 24 9 13 - - -
31/05:00am - - - - - WSW 17 24 9 13 - - -
31/04:30am - - - - - WSW 19 26 10 14 - - -
31/04:00am - - - - - WSW 22 32 12 17 - - -
31/03:30am - - - - - WSW 20 30 11 16 - - -
31/03:00am - - - - - WSW 19 30 10 16 - - -
31/02:30am - - - - - WSW 19 28 10 15 - - -
31/02:00am - - - - - WSW 17 24 9 13 - - -
31/01:30am - - - - - WSW 19 28 10 15 - - -
31/01:00am - - - - - WSW 15 22 8 12 - - -
31/12:30am - - - - - WSW 17 28 9 15 - - -
31/12:00am - - - - - WSW 19 24 10 13 - - -
 
Date/Time
EST
Temp
°C
App
Temp
°C
Dew
Point
Rel
Hum
%
Delta-T
°C
Wind Press
QNH
hPa
Press
MSL
hPa
Rain
since 9 am
mm
Dir
 
Spd
km/h
Gust
km/h
Spd
kts
Gust
kts
30/11:30pm - - - - - W 20 24 11 13 - - -
30/11:00pm - - - - - SSW 13 20 7 11 - - -
30/10:30pm - - - - - S 11 15 6 8 - - -
30/10:00pm - - - - - S 9 13 5 7 - - -
30/09:30pm - - - - - SSE 15 17 8 9 - - -
30/09:00pm - - - - - SSE 17 19 9 10 - - -
30/08:30pm - - - - - SSE 17 20 9 11 - - -
30/08:00pm - - - - - SE 17 20 9 11 - - -
30/07:30pm - - - - - SE 19 22 10 12 - - -
30/07:00pm - - - - - SE 19 22 10 12 - - -
30/06:30pm - - - - - SE 19 22 10 12 - - -
30/06:00pm - - - - - SE 19 24 10 13 - - -
30/05:30pm - - - - - SE 20 24 11 13 - - -
30/05:00pm - - - - - SE 22 28 12 15 - - -
30/04:30pm - - - - - ESE 24 26 13 14 - - -
30/04:00pm - - - - - SE 20 33 11 18 - - -
30/03:30pm - - - - - ESE 26 32 14 17 - - -
30/03:00pm - - - - - W 20 28 11 15 - - -
30/02:30pm - - - - - W 17 24 9 13 - - -
30/02:00pm - - - - - WSW 9 24 5 13 - - -
30/01:30pm - - - - - WSW 11 19 6 10 - - -
30/01:00pm - - - - - W 15 20 8 11 - - -
30/12:30pm - - - - - WSW 9 19 5 10 - - -
30/12:00pm - - - - - W 7 11 4 6 - - -
30/11:30am - - - - - WSW 15 22 8 12 - - -
30/11:00am - - - - - SW 20 24 11 13 - - -
30/10:30am - - - - - SW 19 24 10 13 - - -
30/10:00am - - - - - WSW 13 24 7 13 - - -
30/09:30am - - - - - WSW 13 20 7 11 - - -
30/09:00am - - - - - W 19 24 10 13 - - -
30/08:30am - - - - - W 17 24 9 13 - - -

Other Formats:

Comma delimited format used in spreadsheet applications
http://www.bom.gov.au/fwo/IDQ60801/IDQ60801.94591.axf

JavaScript Object Notation format (JSON) in row-major order
http://www.bom.gov.au/fwo/IDQ60801/IDQ60801.94591.json